sensor_id;sensor_type;location;lat;lon;timestamp;temperature;humidity
4366;DHT22;2196;47.422;9.656;2023-07-28T00:02:16;15.70;99.90
4366;DHT22;2196;47.422;9.656;2023-07-28T00:04:43;15.60;99.90
4366;DHT22;2196;47.422;9.656;2023-07-28T00:07:10;15.60;99.90
4366;DHT22;2196;47.422;9.656;2023-07-28T00:09:37;15.50;99.90
4366;DHT22;2196;47.422;9.656;2023-07-28T00:12:05;15.50;99.90
4366;DHT22;2196;47.422;9.656;2023-07-28T00:14:32;15.50;99.90
4366;DHT22;2196;47.422;9.656;2023-07-28T00:16:59;15.40;99.90
4366;DHT22;2196;47.422;9.656;2023-07-28T00:19:27;15.40;99.90
4366;DHT22;2196;47.422;9.656;2023-07-28T00:21:54;15.30;99.90
4366;DHT22;2196;47.422;9.656;2023-07-28T00:24:22;15.40;99.90
4366;DHT22;2196;47.422;9.656;2023-07-28T00:26:49;15.30;99.90
4366;DHT22;2196;47.422;9.656;2023-07-28T00:29:16;15.30;99.90
4366;DHT22;2196;47.422;9.656;2023-07-28T00:31:42;15.30;99.90
4366;DHT22;2196;47.422;9.656;2023-07-28T00:34:09;15.30;99.90
4366;DHT22;2196;47.422;9.656;2023-07-28T00:36:38;15.30;99.90
4366;DHT22;2196;47.422;9.656;2023-07-28T00:39:06;15.30;99.90
4366;DHT22;2196;47.422;9.656;2023-07-28T00:41:33;15.20;99.90
4366;DHT22;2196;47.422;9.656;2023-07-28T00:44:00;15.20;99.90
4366;DHT22;2196;47.422;9.656;2023-07-28T00:46:27;15.20;99.90
4366;DHT22;2196;47.422;9.656;2023-07-28T00:48:54;15.10;99.90
4366;DHT22;2196;47.422;9.656;2023-07-28T00:51:21;15.10;99.90
4366;DHT22;2196;47.422;9.656;2023-07-28T00:53:50;15.20;99.90
4366;DHT22;2196;47.422;9.656;2023-07-28T00:56:19;15.20;99.90
4366;DHT22;2196;47.422;9.656;2023-07-28T00:58:47;15.20;99.90
4366;DHT22;2196;47.422;9.656;2023-07-28T01:01:14;15.20;99.90
4366;DHT22;2196;47.422;9.656;2023-07-28T01:03:41;15.20;99.90
4366;DHT22;2196;47.422;9.656;2023-07-28T01:06:14;15.20;99.90
4366;DHT22;2196;47.422;9.656;2023-07-28T01:08:52;15.20;99.90
4366;DHT22;2196;47.422;9.656;2023-07-28T01:11:22;15.30;99.90
4366;DHT22;2196;47.422;9.656;2023-07-28T01:13:49;15.30;99.90
4366;DHT22;2196;47.422;9.656;2023-07-28T01:16:16;15.30;99.90
4366;DHT22;2196;47.422;9.656;2023-07-28T01:18:43;15.40;99.90
4366;DHT22;2196;47.422;9.656;2023-07-28T01:21:20;15.50;99.90
4366;DHT22;2196;47.422;9.656;2023-07-28T01:23:56;15.50;99.90
4366;DHT22;2196;47.422;9.656;2023-07-28T01:26:32;15.60;99.90
4366;DHT22;2196;47.422;9.656;2023-07-28T01:29:00;15.60;99.90
4366;DHT22;2196;47.422;9.656;2023-07-28T01:31:27;15.60;99.90
4366;DHT22;2196;47.422;9.656;2023-07-28T01:33:54;15.60;99.90
4366;DHT22;2196;47.422;9.656;2023-07-28T01:36:21;15.60;99.90
4366;DHT22;2196;47.422;9.656;2023-07-28T01:38:48;15.60;99.90
4366;DHT22;2196;47.422;9.656;2023-07-28T01:41:15;15.50;99.90
4366;DHT22;2196;47.422;9.656;2023-07-28T01:43:43;15.60;99.90
4366;DHT22;2196;47.422;9.656;2023-07-28T01:46:10;15.60;99.90
4366;DHT22;2196;47.422;9.656;2023-07-28T01:48:37;15.70;99.90
4366;DHT22;2196;47.422;9.656;2023-07-28T01:51:04;15.70;99.90
4366;DHT22;2196;47.422;9.656;2023-07-28T01:53:31;15.80;99.90
4366;DHT22;2196;47.422;9.656;2023-07-28T01:55:58;15.80;99.90
4366;DHT22;2196;47.422;9.656;2023-07-28T01:58:26;15.90;99.90
4366;DHT22;2196;47.422;9.656;2023-07-28T02:00:54;15.90;99.90
4366;DHT22;2196;47.422;9.656;2023-07-28T02:03:21;16.10;99.90
4366;DHT22;2196;47.422;9.656;2023-07-28T02:05:48;16.20;99.90
4366;DHT22;2196;47.422;9.656;2023-07-28T02:08:15;16.30;99.90
4366;DHT22;2196;47.422;9.656;2023-07-28T02:10:43;16.30;99.90
4366;DHT22;2196;47.422;9.656;2023-07-28T02:13:10;16.40;99.90
4366;DHT22;2196;47.422;9.656;2023-07-28T02:15:37;16.50;99.90
4366;DHT22;2196;47.422;9.656;2023-07-28T02:18:06;16.70;99.90
4366;DHT22;2196;47.422;9.656;2023-07-28T02:20:32;16.80;99.90
4366;DHT22;2196;47.422;9.656;2023-07-28T02:23:01;16.90;99.90
4366;DHT22;2196;47.422;9.656;2023-07-28T02:25:28;17.00;99.90
4366;DHT22;2196;47.422;9.656;2023-07-28T02:27:55;17.10;99.90
4366;DHT22;2196;47.422;9.656;2023-07-28T02:30:22;17.00;99.90
4366;DHT22;2196;47.422;9.656;2023-07-28T02:32:49;17.00;99.90
4366;DHT22;2196;47.422;9.656;2023-07-28T02:35:17;17.00;99.90
4366;DHT22;2196;47.422;9.656;2023-07-28T02:37:44;16.50;99.90
4366;DHT22;2196;47.422;9.656;2023-07-28T02:40:14;17.00;99.90
4366;DHT22;2196;47.422;9.656;2023-07-28T02:42:41;17.00;99.90
4366;DHT22;2196;47.422;9.656;2023-07-28T02:45:09;17.00;99.90
4366;DHT22;2196;47.422;9.656;2023-07-28T02:47:36;16.90;99.90
4366;DHT22;2196;47.422;9.656;2023-07-28T02:50:04;16.90;99.90
4366;DHT22;2196;47.422;9.656;2023-07-28T02:52:32;16.90;99.90
4366;DHT22;2196;47.422;9.656;2023-07-28T02:54:59;17.10;99.90
4366;DHT22;2196;47.422;9.656;2023-07-28T02:57:26;17.10;99.90
4366;DHT22;2196;47.422;9.656;2023-07-28T02:59:53;17.20;99.90
4366;DHT22;2196;47.422;9.656;2023-07-28T03:02:20;17.20;99.90
4366;DHT22;2196;47.422;9.656;2023-07-28T03:04:47;17.30;99.90
4366;DHT22;2196;47.422;9.656;2023-07-28T03:07:14;17.30;99.90
4366;DHT22;2196;47.422;9.656;2023-07-28T03:09:42;17.30;99.90
4366;DHT22;2196;47.422;9.656;2023-07-28T03:12:09;17.40;99.90
4366;DHT22;2196;47.422;9.656;2023-07-28T03:14:36;17.40;99.90
4366;DHT22;2196;47.422;9.656;2023-07-28T03:17:03;17.40;99.90
4366;DHT22;2196;47.422;9.656;2023-07-28T03:19:30;17.40;99.90
4366;DHT22;2196;47.422;9.656;2023-07-28T03:21:57;17.50;99.90
4366;DHT22;2196;47.422;9.656;2023-07-28T03:24:24;17.50;99.90
4366;DHT22;2196;47.422;9.656;2023-07-28T03:26:52;17.50;99.90
4366;DHT22;2196;47.422;9.656;2023-07-28T03:29:19;17.60;99.90
4366;DHT22;2196;47.422;9.656;2023-07-28T03:31:46;17.60;99.90
4366;DHT22;2196;47.422;9.656;2023-07-28T03:34:13;17.60;99.90
4366;DHT22;2196;47.422;9.656;2023-07-28T03:36:40;17.60;99.90
4366;DHT22;2196;47.422;9.656;2023-07-28T03:39:07;17.60;99.90
4366;DHT22;2196;47.422;9.656;2023-07-28T03:41:34;17.60;99.90
4366;DHT22;2196;47.422;9.656;2023-07-28T03:44:02;17.50;99.90
4366;DHT22;2196;47.422;9.656;2023-07-28T03:46:29;17.50;99.90
4366;DHT22;2196;47.422;9.656;2023-07-28T03:48:56;17.40;99.90
4366;DHT22;2196;47.422;9.656;2023-07-28T03:51:25;17.20;99.90
4366;DHT22;2196;47.422;9.656;2023-07-28T03:53:52;17.60;99.90
4366;DHT22;2196;47.422;9.656;2023-07-28T03:56:19;17.60;99.90
4366;DHT22;2196;47.422;9.656;2023-07-28T03:58:46;17.50;99.90
4366;DHT22;2196;47.422;9.656;2023-07-28T04:01:14;17.50;99.90
4366;DHT22;2196;47.422;9.656;2023-07-28T04:03:41;17.50;99.90
4366;DHT22;2196;47.422;9.656;2023-07-28T04:06:10;17.50;99.90
4366;DHT22;2196;47.422;9.656;2023-07-28T04:08:37;17.50;99.90
4366;DHT22;2196;47.422;9.656;2023-07-28T04:11:04;17.50;99.90
4366;DHT22;2196;47.422;9.656;2023-07-28T04:13:31;17.50;99.90
4366;DHT22;2196;47.422;9.656;2023-07-28T04:15:58;17.50;99.90
4366;DHT22;2196;47.422;9.656;2023-07-28T04:18:26;17.40;99.90
4366;DHT22;2196;47.422;9.656;2023-07-28T04:20:53;17.30;99.90
4366;DHT22;2196;47.422;9.656;2023-07-28T04:23:20;17.30;99.90
4366;DHT22;2196;47.422;9.656;2023-07-28T04:25:47;17.20;99.90
4366;DHT22;2196;47.422;9.656;2023-07-28T04:28:14;17.20;99.90
4366;DHT22;2196;47.422;9.656;2023-07-28T04:30:41;17.20;99.90
4366;DHT22;2196;47.422;9.656;2023-07-28T04:33:08;17.20;99.90
4366;DHT22;2196;47.422;9.656;2023-07-28T04:35:36;17.20;99.90
4366;DHT22;2196;47.422;9.656;2023-07-28T04:38:03;17.20;99.90
4366;DHT22;2196;47.422;9.656;2023-07-28T04:40:30;17.20;99.90
4366;DHT22;2196;47.422;9.656;2023-07-28T04:42:57;17.20;99.90
4366;DHT22;2196;47.422;9.656;2023-07-28T04:45:24;17.20;99.90
4366;DHT22;2196;47.422;9.656;2023-07-28T04:47:51;17.10;99.90
4366;DHT22;2196;47.422;9.656;2023-07-28T04:50:18;17.00;99.90
4366;DHT22;2196;47.422;9.656;2023-07-28T04:52:50;17.10;99.90
4366;DHT22;2196;47.422;9.656;2023-07-28T04:55:17;17.10;99.90
4366;DHT22;2196;47.422;9.656;2023-07-28T04:57:44;17.10;99.90
4366;DHT22;2196;47.422;9.656;2023-07-28T05:00:12;17.00;99.90
4366;DHT22;2196;47.422;9.656;2023-07-28T05:02:39;17.00;99.90
4366;DHT22;2196;47.422;9.656;2023-07-28T05:05:06;17.00;99.90
4366;DHT22;2196;47.422;9.656;2023-07-28T05:07:33;17.10;99.90
4366;DHT22;2196;47.422;9.656;2023-07-28T05:10:02;17.10;99.90
4366;DHT22;2196;47.422;9.656;2023-07-28T05:12:30;17.10;99.90
4366;DHT22;2196;47.422;9.656;2023-07-28T05:14:57;17.20;99.90
4366;DHT22;2196;47.422;9.656;2023-07-28T05:17:24;17.30;99.90
4366;DHT22;2196;47.422;9.656;2023-07-28T05:19:51;17.80;99.90
4366;DHT22;2196;47.422;9.656;2023-07-28T05:22:18;18.20;99.90
4366;DHT22;2196;47.422;9.656;2023-07-28T05:24:45;18.50;99.90
4366;DHT22;2196;47.422;9.656;2023-07-28T05:27:14;18.60;99.90
4366;DHT22;2196;47.422;9.656;2023-07-28T05:29:41;18.70;99.90
4366;DHT22;2196;47.422;9.656;2023-07-28T05:32:08;18.70;99.90
4366;DHT22;2196;47.422;9.656;2023-07-28T05:34:35;18.70;99.90
4366;DHT22;2196;47.422;9.656;2023-07-28T05:37:03;18.70;99.90
4366;DHT22;2196;47.422;9.656;2023-07-28T05:39:30;18.60;99.90
4366;DHT22;2196;47.422;9.656;2023-07-28T05:41:57;18.50;99.90
4366;DHT22;2196;47.422;9.656;2023-07-28T05:44:25;18.40;99.90
4366;DHT22;2196;47.422;9.656;2023-07-28T05:46:52;18.40;99.90
4366;DHT22;2196;47.422;9.656;2023-07-28T05:49:19;18.30;99.90
4366;DHT22;2196;47.422;9.656;2023-07-28T05:51:46;18.20;99.90
4366;DHT22;2196;47.422;9.656;2023-07-28T05:54:13;18.30;99.90
4366;DHT22;2196;47.422;9.656;2023-07-28T05:56:41;18.20;99.90
4366;DHT22;2196;47.422;9.656;2023-07-28T05:59:08;18.20;99.90
4366;DHT22;2196;47.422;9.656;2023-07-28T06:01:37;18.30;99.90
4366;DHT22;2196;47.422;9.656;2023-07-28T06:04:04;18.40;99.90
4366;DHT22;2196;47.422;9.656;2023-07-28T06:06:31;18.40;99.90
4366;DHT22;2196;47.422;9.656;2023-07-28T06:08:58;18.40;99.90
4366;DHT22;2196;47.422;9.656;2023-07-28T06:11:25;18.50;99.90
4366;DHT22;2196;47.422;9.656;2023-07-28T06:13:52;18.40;99.90
4366;DHT22;2196;47.422;9.656;2023-07-28T06:16:19;18.30;99.90
4366;DHT22;2196;47.422;9.656;2023-07-28T06:18:47;18.30;99.90
4366;DHT22;2196;47.422;9.656;2023-07-28T06:21:14;18.20;99.90
4366;DHT22;2196;47.422;9.656;2023-07-28T06:23:41;18.20;99.90
4366;DHT22;2196;47.422;9.656;2023-07-28T06:26:08;18.20;99.90
4366;DHT22;2196;47.422;9.656;2023-07-28T06:28:35;18.20;99.90
4366;DHT22;2196;47.422;9.656;2023-07-28T06:31:03;18.30;99.90
4366;DHT22;2196;47.422;9.656;2023-07-28T06:33:30;18.40;99.90
4366;DHT22;2196;47.422;9.656;2023-07-28T06:35:59;18.50;99.90
4366;DHT22;2196;47.422;9.656;2023-07-28T06:38:26;18.80;99.90
4366;DHT22;2196;47.422;9.656;2023-07-28T06:40:53;19.00;99.90
4366;DHT22;2196;47.422;9.656;2023-07-28T06:43:21;19.20;99.90
4366;DHT22;2196;47.422;9.656;2023-07-28T06:45:50;19.30;99.90
4366;DHT22;2196;47.422;9.656;2023-07-28T06:48:17;19.30;99.90
4366;DHT22;2196;47.422;9.656;2023-07-28T06:50:44;19.30;99.90
4366;DHT22;2196;47.422;9.656;2023-07-28T06:53:13;19.10;99.90
4366;DHT22;2196;47.422;9.656;2023-07-28T06:55:40;19.00;99.90
4366;DHT22;2196;47.422;9.656;2023-07-28T06:58:07;19.00;99.90
4366;DHT22;2196;47.422;9.656;2023-07-28T07:00:35;18.90;99.90
4366;DHT22;2196;47.422;9.656;2023-07-28T07:03:02;18.90;99.90
4366;DHT22;2196;47.422;9.656;2023-07-28T07:05:29;18.90;99.90
4366;DHT22;2196;47.422;9.656;2023-07-28T07:07:56;18.90;99.90
4366;DHT22;2196;47.422;9.656;2023-07-28T07:10:24;19.00;99.90
4366;DHT22;2196;47.422;9.656;2023-07-28T07:12:51;19.20;99.90
4366;DHT22;2196;47.422;9.656;2023-07-28T07:15:18;18.70;99.90
4366;DHT22;2196;47.422;9.656;2023-07-28T07:17:45;19.30;99.90
4366;DHT22;2196;47.422;9.656;2023-07-28T07:20:13;19.60;99.90
4366;DHT22;2196;47.422;9.656;2023-07-28T07:22:40;20.40;99.90
4366;DHT22;2196;47.422;9.656;2023-07-28T07:25:08;21.40;99.90
4366;DHT22;2196;47.422;9.656;2023-07-28T07:27:36;21.90;99.90
4366;DHT22;2196;47.422;9.656;2023-07-28T07:30:04;22.10;99.90
4366;DHT22;2196;47.422;9.656;2023-07-28T07:32:32;21.90;99.90
4366;DHT22;2196;47.422;9.656;2023-07-28T07:35:00;21.60;99.90
4366;DHT22;2196;47.422;9.656;2023-07-28T07:37:27;21.40;99.90
4366;DHT22;2196;47.422;9.656;2023-07-28T07:39:54;21.30;99.90
4366;DHT22;2196;47.422;9.656;2023-07-28T07:42:21;21.10;99.90
4366;DHT22;2196;47.422;9.656;2023-07-28T07:44:49;21.10;99.90
4366;DHT22;2196;47.422;9.656;2023-07-28T07:47:16;21.20;99.90
4366;DHT22;2196;47.422;9.656;2023-07-28T07:49:43;21.20;99.90
4366;DHT22;2196;47.422;9.656;2023-07-28T07:52:10;21.10;99.90
4366;DHT22;2196;47.422;9.656;2023-07-28T07:54:38;21.00;99.90
4366;DHT22;2196;47.422;9.656;2023-07-28T07:57:05;20.90;99.90
4366;DHT22;2196;47.422;9.656;2023-07-28T07:59:33;20.80;99.90
4366;DHT22;2196;47.422;9.656;2023-07-28T08:02:01;20.70;99.90
4366;DHT22;2196;47.422;9.656;2023-07-28T08:04:29;20.60;99.90
4366;DHT22;2196;47.422;9.656;2023-07-28T08:06:56;20.60;99.90
4366;DHT22;2196;47.422;9.656;2023-07-28T08:09:23;20.60;99.90
4366;DHT22;2196;47.422;9.656;2023-07-28T08:11:51;20.60;99.90
4366;DHT22;2196;47.422;9.656;2023-07-28T08:14:18;20.80;99.90
4366;DHT22;2196;47.422;9.656;2023-07-28T08:16:45;21.00;99.90
4366;DHT22;2196;47.422;9.656;2023-07-28T08:19:14;21.30;99.90
4366;DHT22;2196;47.422;9.656;2023-07-28T08:21:41;21.60;99.90
4366;DHT22;2196;47.422;9.656;2023-07-28T08:24:07;22.10;99.90
4366;DHT22;2196;47.422;9.656;2023-07-28T08:26:34;22.40;99.90
4366;DHT22;2196;47.422;9.656;2023-07-28T08:29:01;22.70;99.90
4366;DHT22;2196;47.422;9.656;2023-07-28T08:31:28;22.80;99.90
4366;DHT22;2196;47.422;9.656;2023-07-28T08:33:55;23.10;99.90
4366;DHT22;2196;47.422;9.656;2023-07-28T08:36:24;23.60;99.90
4366;DHT22;2196;47.422;9.656;2023-07-28T08:38:50;23.80;99.90
4366;DHT22;2196;47.422;9.656;2023-07-28T08:41:17;23.80;99.90
4366;DHT22;2196;47.422;9.656;2023-07-28T08:43:45;23.70;99.90
4366;DHT22;2196;47.422;9.656;2023-07-28T08:46:12;23.90;99.90
4366;DHT22;2196;47.422;9.656;2023-07-28T08:48:39;24.30;99.90
4366;DHT22;2196;47.422;9.656;2023-07-28T08:51:06;24.20;99.90
4366;DHT22;2196;47.422;9.656;2023-07-28T08:53:35;24.40;99.90
4366;DHT22;2196;47.422;9.656;2023-07-28T08:56:02;24.50;99.90
4366;DHT22;2196;47.422;9.656;2023-07-28T08:58:30;24.40;99.90
4366;DHT22;2196;47.422;9.656;2023-07-28T09:00:57;24.20;99.90
4366;DHT22;2196;47.422;9.656;2023-07-28T09:03:27;24.20;99.90
4366;DHT22;2196;47.422;9.656;2023-07-28T09:05:59;25.30;99.90
4366;DHT22;2196;47.422;9.656;2023-07-28T09:08:26;26.40;99.90
4366;DHT22;2196;47.422;9.656;2023-07-28T09:10:55;27.00;99.90
4366;DHT22;2196;47.422;9.656;2023-07-28T09:13:22;28.00;99.90
4366;DHT22;2196;47.422;9.656;2023-07-28T09:15:49;28.80;99.90
4366;DHT22;2196;47.422;9.656;2023-07-28T09:18:17;29.50;99.90
4366;DHT22;2196;47.422;9.656;2023-07-28T09:20:44;29.80;99.90
4366;DHT22;2196;47.422;9.656;2023-07-28T09:23:14;29.70;99.90
4366;DHT22;2196;47.422;9.656;2023-07-28T09:25:41;28.90;99.90
4366;DHT22;2196;47.422;9.656;2023-07-28T09:28:10;28.10;99.90
4366;DHT22;2196;47.422;9.656;2023-07-28T09:30:45;27.30;99.90
4366;DHT22;2196;47.422;9.656;2023-07-28T09:33:13;26.80;99.90
4366;DHT22;2196;47.422;9.656;2023-07-28T09:35:50;26.30;99.90
4366;DHT22;2196;47.422;9.656;2023-07-28T09:38:18;26.00;99.90
4366;DHT22;2196;47.422;9.656;2023-07-28T09:40:46;25.60;99.90
4366;DHT22;2196;47.422;9.656;2023-07-28T09:43:14;25.40;99.90
4366;DHT22;2196;47.422;9.656;2023-07-28T09:45:42;25.20;99.90
4366;DHT22;2196;47.422;9.656;2023-07-28T09:48:10;25.10;99.90
4366;DHT22;2196;47.422;9.656;2023-07-28T09:50:39;25.00;99.90
4366;DHT22;2196;47.422;9.656;2023-07-28T09:53:09;24.70;99.90
4366;DHT22;2196;47.422;9.656;2023-07-28T09:55:38;24.50;99.90
4366;DHT22;2196;47.422;9.656;2023-07-28T09:58:09;24.30;99.90
4366;DHT22;2196;47.422;9.656;2023-07-28T10:00:39;24.30;99.90
4366;DHT22;2196;47.422;9.656;2023-07-28T10:03:07;24.10;99.90
4366;DHT22;2196;47.422;9.656;2023-07-28T10:05:35;24.00;99.90
4366;DHT22;2196;47.422;9.656;2023-07-28T10:08:03;24.00;99.90
4366;DHT22;2196;47.422;9.656;2023-07-28T10:10:31;24.20;99.90
4366;DHT22;2196;47.422;9.656;2023-07-28T10:12:59;24.40;99.90
4366;DHT22;2196;47.422;9.656;2023-07-28T10:15:30;24.60;99.90
4366;DHT22;2196;47.422;9.656;2023-07-28T10:17:59;24.90;99.90
4366;DHT22;2196;47.422;9.656;2023-07-28T10:20:27;25.50;99.90
4366;DHT22;2196;47.422;9.656;2023-07-28T10:23:02;26.30;99.90
4366;DHT22;2196;47.422;9.656;2023-07-28T10:25:32;27.50;99.90
4366;DHT22;2196;47.422;9.656;2023-07-28T10:27:59;28.40;99.90
4366;DHT22;2196;47.422;9.656;2023-07-28T10:30:28;29.30;99.90
4366;DHT22;2196;47.422;9.656;2023-07-28T10:32:55;29.80;99.90
4366;DHT22;2196;47.422;9.656;2023-07-28T10:35:26;30.00;99.90
4366;DHT22;2196;47.422;9.656;2023-07-28T10:37:54;29.80;99.90
4366;DHT22;2196;47.422;9.656;2023-07-28T10:40:29;29.80;99.90
4366;DHT22;2196;47.422;9.656;2023-07-28T10:42:57;30.00;99.90
4366;DHT22;2196;47.422;9.656;2023-07-28T10:45:26;29.90;99.90
4366;DHT22;2196;47.422;9.656;2023-07-28T10:47:55;29.40;99.90
4366;DHT22;2196;47.422;9.656;2023-07-28T10:50:24;29.10;99.90
4366;DHT22;2196;47.422;9.656;2023-07-28T10:52:51;28.60;99.90
4366;DHT22;2196;47.422;9.656;2023-07-28T10:55:19;28.80;99.90
4366;DHT22;2196;47.422;9.656;2023-07-28T10:57:51;28.90;99.90
4366;DHT22;2196;47.422;9.656;2023-07-28T11:00:19;29.00;99.90
4366;DHT22;2196;47.422;9.656;2023-07-28T11:02:50;29.10;99.90
4366;DHT22;2196;47.422;9.656;2023-07-28T11:05:20;29.40;99.90
4366;DHT22;2196;47.422;9.656;2023-07-28T11:07:53;29.50;99.90
4366;DHT22;2196;47.422;9.656;2023-07-28T11:10:21;29.40;99.90
4366;DHT22;2196;47.422;9.656;2023-07-28T11:12:52;29.30;99.90
4366;DHT22;2196;47.422;9.656;2023-07-28T11:15:20;29.10;99.90
4366;DHT22;2196;47.422;9.656;2023-07-28T11:17:48;29.00;99.90
4366;DHT22;2196;47.422;9.656;2023-07-28T11:20:15;28.80;99.90
4366;DHT22;2196;47.422;9.656;2023-07-28T11:22:43;28.80;99.90
4366;DHT22;2196;47.422;9.656;2023-07-28T11:25:12;28.50;99.90
4366;DHT22;2196;47.422;9.656;2023-07-28T11:27:39;28.30;99.90
4366;DHT22;2196;47.422;9.656;2023-07-28T11:30:08;27.90;99.90
4366;DHT22;2196;47.422;9.656;2023-07-28T11:32:37;27.60;99.90
4366;DHT22;2196;47.422;9.656;2023-07-28T11:35:05;27.50;99.90
4366;DHT22;2196;47.422;9.656;2023-07-28T11:37:33;27.60;99.90
4366;DHT22;2196;47.422;9.656;2023-07-28T11:40:01;27.60;99.90
4366;DHT22;2196;47.422;9.656;2023-07-28T11:42:34;27.70;99.90
4366;DHT22;2196;47.422;9.656;2023-07-28T11:45:02;27.70;99.90
4366;DHT22;2196;47.422;9.656;2023-07-28T11:47:29;27.70;99.90
4366;DHT22;2196;47.422;9.656;2023-07-28T11:49:57;27.60;99.90
4366;DHT22;2196;47.422;9.656;2023-07-28T11:52:30;27.60;99.90
4366;DHT22;2196;47.422;9.656;2023-07-28T11:54:58;27.60;99.90
4366;DHT22;2196;47.422;9.656;2023-07-28T11:57:26;27.70;99.90
4366;DHT22;2196;47.422;9.656;2023-07-28T11:59:55;27.60;99.90
4366;DHT22;2196;47.422;9.656;2023-07-28T12:02:25;27.80;99.90
4366;DHT22;2196;47.422;9.656;2023-07-28T12:04:53;27.80;99.90
4366;DHT22;2196;47.422;9.656;2023-07-28T12:07:28;27.70;99.90
4366;DHT22;2196;47.422;9.656;2023-07-28T12:09:55;27.60;99.90
4366;DHT22;2196;47.422;9.656;2023-07-28T12:12:26;27.50;99.90
4366;DHT22;2196;47.422;9.656;2023-07-28T12:14:56;27.60;99.90
4366;DHT22;2196;47.422;9.656;2023-07-28T12:17:26;27.30;99.90
4366;DHT22;2196;47.422;9.656;2023-07-28T12:20:02;27.20;99.90
4366;DHT22;2196;47.422;9.656;2023-07-28T12:22:36;27.40;99.90
4366;DHT22;2196;47.422;9.656;2023-07-28T12:25:04;27.20;99.90
4366;DHT22;2196;47.422;9.656;2023-07-28T12:27:31;27.20;99.90
4366;DHT22;2196;47.422;9.656;2023-07-28T12:29:59;27.30;99.90
4366;DHT22;2196;47.422;9.656;2023-07-28T12:32:27;27.30;99.90
4366;DHT22;2196;47.422;9.656;2023-07-28T12:34:54;27.30;99.90
4366;DHT22;2196;47.422;9.656;2023-07-28T12:37:21;27.40;99.90
4366;DHT22;2196;47.422;9.656;2023-07-28T12:39:49;27.40;99.90
4366;DHT22;2196;47.422;9.656;2023-07-28T12:42:16;27.40;99.90
4366;DHT22;2196;47.422;9.656;2023-07-28T12:44:43;27.50;99.90
4366;DHT22;2196;47.422;9.656;2023-07-28T12:47:12;27.70;99.90
4366;DHT22;2196;47.422;9.656;2023-07-28T12:49:39;27.90;99.90
4366;DHT22;2196;47.422;9.656;2023-07-28T12:52:06;27.90;99.90
4366;DHT22;2196;47.422;9.656;2023-07-28T12:54:34;28.00;99.90
4366;DHT22;2196;47.422;9.656;2023-07-28T12:57:02;27.90;99.90
4366;DHT22;2196;47.422;9.656;2023-07-28T12:59:30;27.90;99.90
4366;DHT22;2196;47.422;9.656;2023-07-28T13:01:57;27.70;99.90
4366;DHT22;2196;47.422;9.656;2023-07-28T13:04:25;27.60;99.90
4366;DHT22;2196;47.422;9.656;2023-07-28T13:06:52;27.60;99.90
4366;DHT22;2196;47.422;9.656;2023-07-28T13:09:19;27.30;99.90
4366;DHT22;2196;47.422;9.656;2023-07-28T13:11:46;27.10;99.90
4366;DHT22;2196;47.422;9.656;2023-07-28T13:14:13;26.90;99.90
4366;DHT22;2196;47.422;9.656;2023-07-28T13:16:40;26.70;99.90
4366;DHT22;2196;47.422;9.656;2023-07-28T13:19:07;26.70;99.90
4366;DHT22;2196;47.422;9.656;2023-07-28T13:21:35;26.80;99.90
4366;DHT22;2196;47.422;9.656;2023-07-28T13:24:03;27.00;99.90
4366;DHT22;2196;47.422;9.656;2023-07-28T13:26:30;27.30;99.90
4366;DHT22;2196;47.422;9.656;2023-07-28T13:28:57;27.60;99.90
4366;DHT22;2196;47.422;9.656;2023-07-28T13:31:27;27.80;99.90
4366;DHT22;2196;47.422;9.656;2023-07-28T13:33:54;27.90;99.90
4366;DHT22;2196;47.422;9.656;2023-07-28T13:36:21;27.90;99.90
4366;DHT22;2196;47.422;9.656;2023-07-28T13:38:49;27.80;99.90
4366;DHT22;2196;47.422;9.656;2023-07-28T13:41:16;27.70;99.90
4366;DHT22;2196;47.422;9.656;2023-07-28T13:43:43;27.70;99.90
4366;DHT22;2196;47.422;9.656;2023-07-28T13:46:10;27.60;99.90
4366;DHT22;2196;47.422;9.656;2023-07-28T13:48:38;27.60;99.90
4366;DHT22;2196;47.422;9.656;2023-07-28T13:51:06;27.60;99.90
4366;DHT22;2196;47.422;9.656;2023-07-28T13:53:33;27.50;99.90
4366;DHT22;2196;47.422;9.656;2023-07-28T13:56:02;27.50;99.90
4366;DHT22;2196;47.422;9.656;2023-07-28T13:58:30;27.40;99.90
4366;DHT22;2196;47.422;9.656;2023-07-28T14:00:57;27.20;99.90
4366;DHT22;2196;47.422;9.656;2023-07-28T14:03:24;27.10;99.90
4366;DHT22;2196;47.422;9.656;2023-07-28T14:05:51;27.20;99.90
4366;DHT22;2196;47.422;9.656;2023-07-28T14:08:18;27.40;99.90
4366;DHT22;2196;47.422;9.656;2023-07-28T14:10:46;27.40;99.90
4366;DHT22;2196;47.422;9.656;2023-07-28T14:13:14;27.50;99.90
4366;DHT22;2196;47.422;9.656;2023-07-28T14:15:41;27.50;99.90
4366;DHT22;2196;47.422;9.656;2023-07-28T14:18:08;27.50;99.90
4366;DHT22;2196;47.422;9.656;2023-07-28T14:20:35;27.30;99.90
4366;DHT22;2196;47.422;9.656;2023-07-28T14:23:20;27.20;99.90
4366;DHT22;2196;47.422;9.656;2023-07-28T14:25:47;27.10;99.90
4366;DHT22;2196;47.422;9.656;2023-07-28T14:28:16;27.10;99.90
4366;DHT22;2196;47.422;9.656;2023-07-28T14:30:43;27.10;99.90
4366;DHT22;2196;47.422;9.656;2023-07-28T14:33:12;27.00;99.90
4366;DHT22;2196;47.422;9.656;2023-07-28T14:35:39;27.00;99.90
4366;DHT22;2196;47.422;9.656;2023-07-28T14:38:06;27.10;99.90
4366;DHT22;2196;47.422;9.656;2023-07-28T14:40:33;27.30;99.90
4366;DHT22;2196;47.422;9.656;2023-07-28T14:43:00;27.40;99.90
4366;DHT22;2196;47.422;9.656;2023-07-28T14:45:28;27.40;99.90
4366;DHT22;2196;47.422;9.656;2023-07-28T14:47:55;27.50;99.90
4366;DHT22;2196;47.422;9.656;2023-07-28T14:50:22;27.20;99.90
4366;DHT22;2196;47.422;9.656;2023-07-28T14:52:50;26.90;99.90
4366;DHT22;2196;47.422;9.656;2023-07-28T14:55:17;26.70;99.90
4366;DHT22;2196;47.422;9.656;2023-07-28T14:57:44;26.60;99.90
4366;DHT22;2196;47.422;9.656;2023-07-28T15:00:12;26.60;99.90
4366;DHT22;2196;47.422;9.656;2023-07-28T15:02:41;26.50;99.90
4366;DHT22;2196;47.422;9.656;2023-07-28T15:05:08;26.50;99.90
4366;DHT22;2196;47.422;9.656;2023-07-28T15:07:35;26.50;99.90
4366;DHT22;2196;47.422;9.656;2023-07-28T15:10:02;26.50;99.90
4366;DHT22;2196;47.422;9.656;2023-07-28T15:12:30;26.40;99.90
4366;DHT22;2196;47.422;9.656;2023-07-28T15:14:57;26.20;99.90
4366;DHT22;2196;47.422;9.656;2023-07-28T15:17:24;26.30;99.90
4366;DHT22;2196;47.422;9.656;2023-07-28T15:19:52;26.20;99.90
4366;DHT22;2196;47.422;9.656;2023-07-28T15:22:19;26.00;99.90
4366;DHT22;2196;47.422;9.656;2023-07-28T15:24:46;25.90;99.90
4366;DHT22;2196;47.422;9.656;2023-07-28T15:27:13;25.90;99.90
4366;DHT22;2196;47.422;9.656;2023-07-28T15:29:40;25.80;99.90
4366;DHT22;2196;47.422;9.656;2023-07-28T15:32:07;25.90;99.90
4366;DHT22;2196;47.422;9.656;2023-07-28T15:34:34;25.70;99.90
4366;DHT22;2196;47.422;9.656;2023-07-28T15:37:03;25.70;99.90
4366;DHT22;2196;47.422;9.656;2023-07-28T15:39:30;25.60;99.90
4366;DHT22;2196;47.422;9.656;2023-07-28T15:41:57;25.50;99.90
4366;DHT22;2196;47.422;9.656;2023-07-28T15:44:24;25.30;99.90
4366;DHT22;2196;47.422;9.656;2023-07-28T15:46:51;25.10;99.90
4366;DHT22;2196;47.422;9.656;2023-07-28T15:49:18;25.00;99.90
4366;DHT22;2196;47.422;9.656;2023-07-28T15:51:45;25.00;99.90
4366;DHT22;2196;47.422;9.656;2023-07-28T15:54:14;24.80;99.90
4366;DHT22;2196;47.422;9.656;2023-07-28T15:56:41;24.70;99.90
4366;DHT22;2196;47.422;9.656;2023-07-28T15:59:07;24.50;99.90
4366;DHT22;2196;47.422;9.656;2023-07-28T16:01:35;24.40;99.90
4366;DHT22;2196;47.422;9.656;2023-07-28T16:04:02;24.20;99.90
4366;DHT22;2196;47.422;9.656;2023-07-28T16:06:30;24.00;99.90